createdAt,value
2023-01-29T12:09:41.635Z,17.45
2023-01-29T12:12:42.046Z,19.70
2023-01-29T12:15:08.674Z,19.70
2023-01-29T12:20:14.012Z,21.27
2023-01-29T12:23:03.795Z,20.45
2023-01-29T12:25:56.572Z,21.95
2023-01-29T12:28:33.738Z,20.75
2023-01-29T12:31:00.383Z,19.02
2023-01-29T12:36:07.932Z,18.17
2023-01-29T12:38:37.086Z,20.63
2023-01-29T12:41:39.336Z,18.00
2023-01-29T12:44:18.712Z,17.77
2023-01-29T12:46:52.824Z,20.08
2023-01-29T12:49:24.792Z,19.10
2023-01-29T12:52:09.966Z,21.25
2023-01-29T12:54:46.094Z,24.25
2023-01-29T12:57:30.086Z,21.23
2023-01-29T13:00:06.196Z,20.67
2023-01-29T13:02:44.192Z,15.90
2023-01-29T13:05:38.519Z,22.90
2023-01-29T13:08:14.590Z,17.17
2023-01-29T13:10:45.980Z,20.30
2023-01-29T13:13:19.224Z,19.35
2023-01-29T13:15:47.560Z,19.52
2023-01-29T13:18:44.795Z,20.33
2023-01-29T13:21:18.660Z,20.70
2023-01-29T13:23:55.570Z,20.70
2023-01-29T13:26:23.180Z,23.05
2023-01-29T13:28:52.285Z,23.95
2023-01-29T13:31:33.070Z,24.23
2023-01-29T13:34:15.448Z,19.48
2023-01-29T13:36:48.830Z,19.73
2023-01-29T13:39:29.355Z,21.77
2023-01-29T13:41:58.178Z,19.83
2023-01-29T13:44:26.839Z,20.83
2023-01-29T13:47:09.682Z,21.85
2023-01-29T13:49:43.977Z,20.85
2023-01-29T13:52:28.745Z,20.27
2023-01-29T13:55:05.163Z,19.67
2023-01-29T13:57:44.109Z,20.30
2023-01-29T14:00:24.363Z,21.40
2023-01-29T14:02:59.817Z,19.13
2023-01-29T14:05:29.468Z,19.67
2023-01-29T14:08:03.302Z,20.23
2023-01-29T14:10:32.468Z,21.02
2023-01-29T14:13:21.213Z,20.85
2023-01-29T14:16:13.915Z,21.73
2023-01-29T14:19:01.748Z,18.60
2023-01-29T14:21:34.057Z,22.88
2023-01-29T14:24:24.608Z,22.85
2023-01-29T14:26:55.706Z,16.42
2023-01-29T14:32:20.519Z,20.38
2023-01-29T14:32:42.625Z,24.67
2023-01-29T14:34:54.947Z,22.45
2023-01-29T14:37:38.805Z,21.30
2023-01-29T14:40:11.403Z,21.92
2023-01-29T14:42:45.057Z,19.75
2023-01-29T14:45:32.362Z,20.50
2023-01-29T14:48:00.012Z,20.10
2023-01-29T14:50:31.601Z,21.80
2023-01-29T14:53:19.884Z,16.27
2023-01-29T14:56:01.571Z,19.42
2023-01-29T14:58:50.016Z,17.70
2023-01-29T15:01:25.188Z,16.60
2023-01-29T15:04:16.019Z,17.35
2023-01-29T15:06:49.546Z,16.05
2023-01-29T15:09:40.971Z,16.88
2023-01-29T15:12:20.754Z,11.10
2023-01-29T15:15:02.930Z,12.57
2023-01-29T15:17:48.227Z,13.43
2023-01-29T15:20:26.363Z,10.52
2023-01-29T15:22:53.043Z,12.27
2023-01-29T15:25:21.599Z,13.15
2023-01-29T15:27:48.931Z,14.25
2023-01-29T15:30:22.996Z,11.45
2023-01-29T15:32:50.004Z,12.90
2023-01-29T15:35:30.150Z,13.05
2023-01-29T15:38:02.855Z,12.02
2023-01-29T15:40:29.630Z,11.10
2023-01-29T15:42:56.300Z,12.68
2023-01-29T15:45:33.476Z,15.50
2023-01-29T15:48:17.203Z,18.10
2023-01-29T15:50:45.181Z,17.15
2023-01-29T15:53:20.693Z,20.02
2023-01-29T15:55:48.009Z,20.90
2023-01-29T15:58:29.952Z,24.15
2023-01-29T16:00:59.353Z,21.73
2023-01-29T16:03:30.785Z,20.73
2023-01-29T16:05:57.819Z,24.92
2023-01-29T16:08:26.773Z,24.58
2023-01-29T16:10:57.001Z,27.30
2023-01-29T16:13:29.609Z,26.67
2023-01-29T16:16:02.347Z,28.48
2023-01-29T16:18:42.895Z,26.35
2023-01-29T16:21:25.559Z,27.98
2023-01-29T16:23:56.691Z,29.52
2023-01-29T16:26:31.679Z,27.88
2023-01-29T16:29:05.154Z,28.00
2023-01-29T16:31:32.369Z,26.80
2023-01-29T16:34:05.985Z,28.10
2023-01-29T16:36:32.813Z,28.10
2023-01-29T16:39:02.454Z,34.92
2023-01-29T16:41:32.176Z,28.27
2023-01-29T16:44:02.321Z,25.42
2023-01-29T16:46:33.611Z,31.73
2023-01-29T16:49:00.718Z,28.17
2023-01-29T16:51:30.588Z,30.38
2023-01-29T16:54:00.238Z,31.05
2023-01-29T16:56:30.832Z,29.75
2023-01-29T16:58:58.631Z,26.52
2023-01-29T17:01:28.351Z,31.40
2023-01-29T17:04:05.757Z,32.88
2023-01-29T17:06:33.150Z,30.35
2023-01-29T17:09:00.457Z,36.70
2023-01-29T17:11:39.807Z,33.58
2023-01-29T17:14:08.317Z,35.58
2023-01-29T17:16:37.540Z,34.05
2023-01-29T17:19:18.098Z,36.25
2023-01-29T17:21:44.836Z,34.20
2023-01-29T17:24:11.954Z,33.47
2023-01-29T17:26:39.604Z,33.33
2023-01-29T17:29:08.665Z,35.05
2023-01-29T17:31:35.381Z,34.90
2023-01-29T17:34:02.103Z,37.58
2023-01-29T17:36:28.744Z,36.05
2023-01-29T17:41:28.467Z,37.13
2023-01-29T17:46:22.043Z,32.72
2023-01-29T17:48:52.303Z,37.63
2023-01-29T17:51:19.073Z,34.80
2023-01-29T17:53:46.967Z,30.35
2023-01-29T17:56:16.916Z,36.47
2023-01-29T17:58:43.948Z,38.08
2023-01-29T18:01:10.595Z,37.10
2023-01-29T18:03:37.389Z,39.10
2023-01-29T18:06:07.986Z,37.00
2023-01-29T18:08:37.069Z,35.38
2023-01-29T18:11:04.003Z,33.95
2023-01-29T18:13:30.715Z,33.25
2023-01-29T18:15:57.405Z,34.47
2023-01-29T18:18:24.557Z,38.70
2023-01-29T18:20:51.394Z,33.47
2023-01-29T18:23:18.177Z,31.45
2023-01-29T18:25:44.915Z,34.58
2023-01-29T18:28:19.786Z,34.00
2023-01-29T18:30:47.248Z,32.42
2023-01-29T18:33:15.038Z,34.20
2023-01-29T18:35:43.161Z,31.58
2023-01-29T18:38:09.800Z,28.40
2023-01-29T18:43:04.179Z,33.03
2023-01-29T18:45:31.119Z,29.92
2023-01-29T18:47:57.804Z,29.85
2023-01-29T18:50:26.213Z,34.75
2023-01-29T18:52:55.916Z,29.15
2023-01-29T18:55:23.691Z,30.73
2023-01-29T18:58:28.052Z,27.30
2023-01-29T19:00:43.879Z,27.52
2023-01-29T19:03:11.254Z,31.58
2023-01-29T19:05:38.156Z,28.15
2023-01-29T19:08:05.710Z,32.22
2023-01-29T19:10:32.756Z,30.02
2023-01-29T19:12:59.490Z,27.85
2023-01-29T19:15:26.345Z,24.95
2023-01-29T19:17:53.447Z,28.30
2023-01-29T19:20:20.456Z,29.27
2023-01-29T19:22:47.391Z,29.15
2023-01-29T19:25:14.158Z,28.65
2023-01-29T19:27:41.370Z,28.48
2023-01-29T19:30:10.138Z,26.88
2023-01-29T19:32:36.850Z,25.70
2023-01-29T19:35:03.696Z,30.52
2023-01-29T19:37:30.983Z,27.23
2023-01-29T19:39:57.871Z,27.52
2023-01-29T19:42:24.636Z,23.20
2023-01-29T19:44:52.250Z,26.88
2023-01-29T19:47:19.205Z,28.70
2023-01-29T19:49:45.953Z,23.75
2023-01-29T19:52:49.812Z,25.25
2023-01-29T19:55:17.728Z,24.25
2023-01-29T19:57:44.711Z,21.73
2023-01-29T20:00:12.272Z,27.73
2023-01-29T20:02:39.390Z,23.58
2023-01-29T20:05:08.025Z,26.10
2023-01-29T20:07:35.973Z,26.02
2023-01-29T20:10:02.906Z,26.75
2023-01-29T20:12:29.967Z,20.70
2023-01-29T20:14:56.850Z,26.65
2023-01-29T20:17:23.565Z,25.88
2023-01-29T20:19:50.323Z,24.13
2023-01-29T20:22:17.243Z,23.55
2023-01-29T20:24:44.348Z,23.95
2023-01-29T20:27:11.745Z,25.77
2023-01-29T20:29:39.297Z,26.38
2023-01-29T20:32:08.085Z,25.83
2023-01-29T20:34:35.686Z,29.23
2023-01-29T20:37:02.435Z,24.48
2023-01-29T20:39:29.159Z,22.23
2023-01-29T20:41:57.392Z,21.52
2023-01-29T20:44:25.067Z,29.40
2023-01-29T20:46:52.107Z,20.20
2023-01-29T20:49:19.207Z,22.88
2023-01-29T20:51:46.288Z,27.08
2023-01-29T20:54:13.273Z,23.88
2023-01-29T20:56:42.889Z,25.85
2023-01-29T20:59:11.310Z,26.10
2023-01-29T21:01:38.066Z,23.15
2023-01-29T21:04:04.918Z,24.52
2023-01-29T21:06:31.758Z,27.90
2023-01-29T21:08:58.521Z,23.98
2023-01-29T21:11:25.414Z,27.65
2023-01-29T21:13:57.414Z,23.58
2023-01-29T21:16:26.229Z,23.10
2023-01-29T21:18:57.894Z,29.00
2023-01-29T21:21:26.503Z,23.70
2023-01-29T21:23:53.833Z,22.42
2023-01-29T21:26:20.717Z,21.40
2023-01-29T21:28:47.487Z,24.42
2023-01-29T21:31:17.683Z,26.05
2023-01-29T21:33:44.780Z,23.08
2023-01-29T21:36:12.182Z,22.85
2023-01-29T21:38:39.685Z,20.50
2023-01-29T21:41:09.758Z,28.00
2023-01-29T21:43:37.419Z,21.50
2023-01-29T21:46:13.881Z,24.75
2023-01-29T21:48:40.784Z,22.90
2023-01-29T21:51:08.219Z,24.38
2023-01-29T21:53:35.008Z,25.95
2023-01-29T21:56:03.793Z,21.40
2023-01-29T21:58:31.025Z,24.55
2023-01-29T22:01:11.345Z,23.40
2023-01-29T22:03:47.029Z,23.83
2023-01-29T22:06:14.124Z,24.45
2023-01-29T22:08:40.801Z,22.67
2023-01-29T22:11:08.096Z,22.50
2023-01-29T22:13:35.006Z,26.90
2023-01-29T22:16:01.718Z,21.60
2023-01-29T22:18:28.440Z,26.65
2023-01-29T22:20:56.073Z,23.58
2023-01-29T22:23:23.158Z,23.00
2023-01-29T22:25:50.101Z,25.23
2023-01-29T22:28:17.550Z,22.70
2023-01-29T22:30:45.128Z,22.58
2023-01-29T22:33:12.116Z,26.85
2023-01-29T22:35:38.847Z,20.75
2023-01-29T22:38:05.722Z,20.08
2023-01-29T22:40:32.371Z,21.35
2023-01-29T22:42:59.025Z,22.92
2023-01-29T22:45:25.799Z,22.38
2023-01-29T22:47:52.438Z,21.20
2023-01-29T22:52:53.932Z,25.58
2023-01-29T22:55:20.908Z,21.20
2023-01-29T22:57:50.928Z,20.73
2023-01-29T23:00:18.336Z,24.90
2023-01-29T23:02:47.227Z,26.58
2023-01-29T23:05:14.056Z,25.63
2023-01-29T23:07:40.691Z,25.98
2023-01-29T23:12:34.318Z,26.00
2023-01-29T23:15:00.986Z,26.50
2023-01-29T23:17:27.645Z,25.55
2023-01-29T23:19:54.295Z,25.38
2023-01-29T23:24:48.704Z,23.92
2023-01-29T23:29:47.304Z,23.02
2023-01-29T23:32:20.068Z,24.88
2023-01-29T23:34:46.921Z,27.00
2023-01-29T23:37:13.831Z,29.48
2023-01-29T23:39:40.607Z,28.15
2023-01-29T23:42:07.367Z,27.40
2023-01-29T23:44:34.129Z,33.72
2023-01-29T23:47:00.756Z,26.83
2023-01-29T23:51:54.018Z,29.15
2023-01-29T23:54:20.743Z,27.52
2023-01-29T23:56:47.474Z,26.13
2023-01-29T23:59:15.035Z,29.90
